Wilbur by the Sea, Florida
Current Conditions -  °F | °C
As of 6:47 PM on Friday 28 Nov 2014 (Local Time) from KEVB Reporting Station
Clear Clear  
Wind Chill: 11°   Ceiling: Unl
Heat Index: 11°   Visibility: 10mi
Dew Point:   Wind: 8mph
Humidity: 76%   Direction: 350°N
Pressure: 30.27"   Gusts: NA
Location:  29.1091°N, 80.9979°W
Report Text: KEVB 282347Z 35007KT 10SM SKC 11/07 A3027
Loading
Personal Weather Stations






























Interactive Weather Map New forecast layout! Learn more

10-Day Weather Forecast

Advertisements
Track Severe Weather on mobile